»·PEaware :: N815M KWJF-KSAC

N815M :: KWJF-KSAC

FLIGHT INFORMATION

Flight Status: Arrived
Operator: Privately registered:
United States
More flights under this callsign
Pilot: Robert C. (30425)
Aircraft: BEECH AIRCRAFT DEBONAIR BONANZA
(BE33)
More flights by this aircraft type
Origin: KWJF Gen Fox
United States
Destination: KSAC Sacramento Executive
United States
More flights between these airports :: More routes between these airports
Route: GMN V137 AVE T263 PAX MOD SAC
File this flight plan on PilotEdge
Remarks:
Altitude:
(Current/Filed)
8,500ft
Speed:
(Current/Filed)
165kts
Departed: 19-Sep-20 07:49 PM
Arrived: 19-Sep-20 09:47 PM
Distance/Time
Traveled:
276nm/1:58
Distance/Time
To Go:
Arrived

Flight Plot

Page will automatically refresh every two minutes.

Flight plan parsing failed; only flown route is shown


Map Options




Map Legend


Flown Route
Filed Route
Departure Airport
Arrival Airport
Navaid (VOR, NDB)
Fix

Horizontal Profiles

Position Reports

Time Latitude Longitude Heading Altitude Ground
Speed
19-Sep-20 19:33 34.738573 -118.219247 69 2345ft 0kts
19-Sep-20 19:34 34.738573 -118.219247 69 2345ft 0kts
19-Sep-20 19:35 34.738573 -118.219247 69 2345ft 0kts
19-Sep-20 19:36 34.738573 -118.219247 69 2345ft 0kts
19-Sep-20 19:37 34.738573 -118.219247 69 2345ft 0kts
19-Sep-20 19:38 34.738573 -118.219247 69 2345ft 0kts
19-Sep-20 19:39 34.738573 -118.219247 69 2345ft 0kts
19-Sep-20 19:40 34.738573 -118.219247 69 2345ft 0kts
19-Sep-20 19:41 34.738573 -118.219247 69 2345ft 0kts
19-Sep-20 19:42 34.738573 -118.219247 69 2345ft 0kts
19-Sep-20 19:43 34.738908 -118.219242 323 2345ft 5kts
19-Sep-20 19:44 34.740426 -118.217231 62 2343ft 30kts
19-Sep-20 19:45 34.742283 -118.210323 73 2338ft 12kts
19-Sep-20 19:46 34.743062 -118.207474 71 2337ft 9kts
19-Sep-20 19:47 34.743684 -118.207192 329 2337ft 11kts
19-Sep-20 19:48 34.741545 -118.216844 252 2343ft 92kts
19-Sep-20 19:49 34.731740 -118.244097 265 3143ft 98kts
19-Sep-20 19:50 34.732746 -118.280303 272 3913ft 110kts
19-Sep-20 19:51 34.734467 -118.317461 272 4745ft 110kts
19-Sep-20 19:52 34.737409 -118.354477 274 5546ft 109kts
19-Sep-20 19:53 34.740669 -118.391346 274 6304ft 109kts
19-Sep-20 19:54 34.744115 -118.428048 274 7017ft 109kts
19-Sep-20 19:55 34.747732 -118.464710 274 7691ft 108kts
19-Sep-20 19:56 34.751535 -118.501281 275 8325ft 108kts
19-Sep-20 19:57 34.756246 -118.541289 275 8527ft 135kts
19-Sep-20 19:58 34.761629 -118.589528 275 8539ft 149kts
19-Sep-20 20:00 34.767105 -118.640381 275 8564ft 152kts
19-Sep-20 20:01 34.773566 -118.689709 277 8590ft 151kts
19-Sep-20 20:02 34.780290 -118.740426 277 8612ft 151kts
19-Sep-20 20:03 34.786883 -118.791116 277 8632ft 151kts
19-Sep-20 20:04 34.793456 -118.842313 277 8620ft 153kts
19-Sep-20 20:05 34.815908 -118.886106 307 8608ft 156kts
19-Sep-20 20:06 34.843724 -118.926787 307 8609ft 155kts
19-Sep-20 20:07 34.871179 -118.967479 307 8625ft 154kts
19-Sep-20 20:08 34.899034 -119.007705 310 8637ft 154kts
19-Sep-20 20:09 34.928093 -119.046634 312 8635ft 155kts
19-Sep-20 20:10 34.957917 -119.085147 312 8605ft 156kts
19-Sep-20 20:11 34.988603 -119.123243 316 8576ft 156kts
19-Sep-20 20:12 35.020423 -119.159580 316 8554ft 156kts
19-Sep-20 20:13 35.052219 -119.196303 316 8529ft 157kts
19-Sep-20 20:14 35.084406 -119.233665 316 8499ft 161kts
19-Sep-20 20:15 35.116100 -119.272163 313 8478ft 162kts
19-Sep-20 20:16 35.147423 -119.312591 313 8473ft 162kts
19-Sep-20 20:16 35.173384 -119.346084 313 8473ft 161kts
19-Sep-20 20:18 35.207371 -119.395048 309 8472ft 161kts
19-Sep-20 20:19 35.235925 -119.437636 310 8472ft 161kts
19-Sep-20 20:19 35.259700 -119.473090 310 8472ft 161kts
19-Sep-20 20:20 35.288369 -119.515832 310 8472ft 161kts
19-Sep-20 20:22 35.321689 -119.565465 310 8473ft 161kts
19-Sep-20 20:22 35.345999 -119.600517 311 8473ft 161kts
19-Sep-20 20:23 35.375473 -119.642082 312 8472ft 161kts
19-Sep-20 20:24 35.405328 -119.683509 311 8472ft 161kts
19-Sep-20 20:25 35.436076 -119.723983 321 8462ft 161kts
19-Sep-20 20:26 35.471971 -119.757293 319 8456ft 162kts
19-Sep-20 20:27 35.502152 -119.798320 317 8496ft 160kts
19-Sep-20 20:28 35.532037 -119.839160 311 8493ft 160kts
19-Sep-20 20:29 35.562172 -119.879666 315 8495ft 159kts
19-Sep-20 20:30 35.594141 -119.918244 315 8496ft 159kts
19-Sep-20 20:31 35.625915 -119.956409 315 8498ft 158kts
19-Sep-20 20:32 35.660177 -119.990650 327 8500ft 158kts
19-Sep-20 20:33 35.697742 -120.019066 328 8499ft 158kts
19-Sep-20 20:34 35.735449 -120.047643 328 8497ft 158kts
19-Sep-20 20:35 35.773062 -120.076275 328 8496ft 158kts
19-Sep-20 20:36 35.810801 -120.105083 328 8495ft 158kts
19-Sep-20 20:37 35.848698 -120.133118 330 8495ft 158kts
19-Sep-20 20:38 35.887212 -120.160229 330 8494ft 158kts
19-Sep-20 20:39 35.925684 -120.187362 330 8493ft 158kts
19-Sep-20 20:40 35.964037 -120.214506 330 8492ft 159kts
19-Sep-20 20:41 36.002550 -120.241892 330 8490ft 159kts
19-Sep-20 20:42 36.041062 -120.269315 330 8491ft 159kts
19-Sep-20 20:43 36.079623 -120.296696 330 8491ft 159kts
19-Sep-20 20:44 36.118017 -120.323878 330 8494ft 159kts
19-Sep-20 20:45 36.156611 -120.351112 330 8495ft 159kts
19-Sep-20 20:46 36.195177 -120.378630 326 8495ft 159kts
19-Sep-20 20:47 36.231375 -120.408671 326 8494ft 159kts
19-Sep-20 20:48 36.268199 -120.439302 326 8493ft 159kts
19-Sep-20 20:49 36.305080 -120.470084 326 8492ft 159kts
19-Sep-20 20:50 36.342264 -120.500498 327 8491ft 159kts
19-Sep-20 20:51 36.379905 -120.530746 327 8492ft 159kts
19-Sep-20 20:52 36.417416 -120.560863 327 8492ft 159kts
19-Sep-20 20:53 36.454928 -120.591000 327 8491ft 159kts
19-Sep-20 20:54 36.492424 -120.621176 327 8490ft 159kts
19-Sep-20 20:55 36.530208 -120.650987 328 8487ft 160kts
19-Sep-20 20:56 36.568168 -120.680365 328 8483ft 160kts
19-Sep-20 20:57 36.606312 -120.709928 328 8478ft 161kts
19-Sep-20 20:58 36.644500 -120.739567 328 8477ft 161kts
19-Sep-20 20:59 36.682542 -120.769093 328 8486ft 161kts
19-Sep-20 21:00 36.725347 -120.784114 347 8491ft 161kts
19-Sep-20 21:01 36.769272 -120.796089 347 8495ft 161kts
19-Sep-20 21:02 36.813124 -120.808032 347 8498ft 161kts
19-Sep-20 21:03 36.857008 -120.819980 347 8502ft 161kts
19-Sep-20 21:04 36.901205 -120.832010 347 8506ft 161kts
19-Sep-20 21:05 36.945120 -120.843960 347 8509ft 161kts
19-Sep-20 21:06 36.989285 -120.855953 347 8508ft 162kts
19-Sep-20 21:07 37.033568 -120.867896 347 8502ft 163kts
19-Sep-20 21:08 37.078454 -120.878400 350 8495ft 164kts
19-Sep-20 21:09 37.123815 -120.887592 350 8486ft 165kts
19-Sep-20 21:10 37.169742 -120.895098 352 8483ft 165kts
19-Sep-20 21:11 37.215689 -120.902271 352 8481ft 165kts
19-Sep-20 21:12 37.261479 -120.909292 352 8478ft 165kts
19-Sep-20 21:13 37.307179 -120.916173 352 8476ft 165kts
19-Sep-20 21:14 37.352891 -120.923024 352 8475ft 165kts
19-Sep-20 21:15 37.398402 -120.929821 352 8493ft 164kts
19-Sep-20 21:16 37.443846 -120.936565 352 8492ft 165kts
19-Sep-20 21:17 37.489462 -120.944266 351 8492ft 165kts
19-Sep-20 21:18 37.534798 -120.951978 351 8491ft 164kts
19-Sep-20 21:19 37.580326 -120.959693 351 8491ft 164kts
19-Sep-20 21:20 37.625609 -120.967340 351 8500ft 164kts
19-Sep-20 21:21 37.671029 -120.974995 351 8500ft 164kts
19-Sep-20 21:22 37.708403 -121.006728 326 8499ft 163kts
19-Sep-20 21:23 37.746635 -121.037991 326 8502ft 163kts
19-Sep-20 21:24 37.784767 -121.069099 326 8504ft 163kts
19-Sep-20 21:25 37.822974 -121.100217 326 8506ft 162kts
19-Sep-20 21:26 37.861169 -121.131297 326 8507ft 162kts
19-Sep-20 21:27 37.899160 -121.162230 326 8510ft 161kts
19-Sep-20 21:28 37.936663 -121.193128 327 8508ft 159kts
19-Sep-20 21:29 37.974644 -121.223120 327 8014ft 155kts
19-Sep-20 21:30 38.010518 -121.251529 327 7395ft 149kts
19-Sep-20 21:31 38.046017 -121.278955 329 6781ft 148kts
19-Sep-20 21:32 38.081764 -121.304733 329 6173ft 147kts
19-Sep-20 21:33 38.117304 -121.330120 329 5636ft 145kts
19-Sep-20 21:34 38.151907 -121.354356 332 5123ft 140kts
19-Sep-20 21:35 38.188424 -121.372017 337 4619ft 140kts
19-Sep-20 21:36 38.225748 -121.389118 339 4114ft 143kts
19-Sep-20 21:37 38.263698 -121.405990 339 3614ft 145kts
19-Sep-20 21:38 38.302218 -121.423319 339 3112ft 147kts
19-Sep-20 21:39 38.341185 -121.441029 339 2609ft 148kts
19-Sep-20 21:40 38.380096 -121.458819 339 2109ft 149kts
19-Sep-20 21:41 38.419067 -121.475807 341 1593ft 141kts
19-Sep-20 21:42 38.453479 -121.490059 341 1348ft 134kts
19-Sep-20 21:43 38.490844 -121.489964 35 1106ft 134kts
19-Sep-20 21:44 38.518282 -121.465111 33 1109ft 107kts
19-Sep-20 21:45 38.525362 -121.483609 215 512ft 82kts
19-Sep-20 21:46 38.513753 -121.494018 243 22ft 19kts
19-Sep-20 21:47 38.513552 -121.495033 268 22ft 0kts
19-Sep-20 21:48 38.514749 -121.494470 31 23ft 16kts
19-Sep-20 21:49 38.518700 -121.491185 33 24ft 23kts
19-Sep-20 21:50 38.519608 -121.493379 273 24ft 0kts
19-Sep-20 21:51 38.520002 -121.493720 40 24ft 11kts
19-Sep-20 21:52 38.519943 -121.494255 219 24ft 0kts
19-Sep-20 21:53 38.519943 -121.494255 219 24ft 0kts
19-Sep-20 21:54 38.519943 -121.494255 219 24ft 0kts
19-Sep-20 21:55 38.519943 -121.494255 219 24ft 0kts
19-Sep-20 21:56 38.519943 -121.494255 219 24ft 0kts

Navigation Log

Ident Type
Flight plan parsing failed, navigation log unavailable